ソチ空港の過去48時間の天気

ソチ空港 (Adler)

現在時刻: 9/22 16:18 MSK (9/22 13:18 UTC) 以下の時間は現地時間です。

過去48時間のMETAR気象情報
時間 風向 風速(m/s) 視程 気温(℃) 湿度(%) 気圧(hPa) 天気現象
22 16:00 西 4 10km以上 26 65 1015
22 15:30 西 3 10km以上 26 58 1015
22 15:00 西 3 10km以上 27 51 1015
22 14:30 西南西 3 10km以上 27 48 1015
22 14:00 西 3 10km以上 27 54 1015
22 13:30 西 2 10km以上 27 54 1015
22 13:00 西 2 10km以上 27 54 1016
22 12:30 西 3 10km以上 26 61 1016
22 12:00 西 3 10km以上 26 61 1016
22 11:30 西 3 10km以上 26 61 1016
22 11:00 西 3 10km以上 25 61 1016
22 10:30 西北西 2 10km以上 25 61 1016
22 10:00 北北西 1 10km以上 25 57 1016
22 09:30 北北東 3 10km以上 23 61 1016
22 09:00 北東 4 10km以上 22 65 1016
22 08:30 北北東 5 10km以上 21 64 1016
22 08:00 北東 6 10km以上 20 68 1016
22 07:30 北北東 6 10km以上 19 73 1016
22 07:00 北東 5 10km以上 18 77 1016
22 06:30 北東 6 10km以上 18 77 1016
22 06:00 北東 5 10km以上 18 77 1016
22 05:30 北東 5 10km以上 18 83 1016
22 05:00 北東 5 10km以上 18 83 1016
22 04:30 北東 5 10km以上 18 83 1016
22 04:00 北東 4 10km以上 18 83 1016
22 03:30 北東 5 10km以上 18 83 1016
22 03:00 北東 5 10km以上 18 88 1016
22 02:30 北東 5 10km以上 18 88 1016
22 02:00 北東 4 10km以上 18 88 1016
22 01:30 北東 5 10km以上 19 83 1017
22 01:00 北東 4 10km以上 19 83 1017
22 00:30 北東 4 10km以上 19 83 1017
22 00:00 北東 4 10km以上 19 88 1017
21 23:30 北東 4 10km以上 18 94 1017
21 23:00 北東 3 10km以上 19 88 1017
21 22:30 北東 4 10km以上 19 88 1017
21 22:00 北東 3 10km以上 19 88 1016
21 21:30 北東 3 10km以上 19 88 1016
21 21:00 北東 3 10km以上 19 88 1016
21 20:30 北東 3 10km以上 20 83 1016
21 20:00 北東 3 10km以上 20 88 1016
21 19:30 北東 2 10km以上 21 83 1016
21 19:00 北西 2 10km以上 23 73 1015
21 18:30 西北西 3 10km以上 24 69 1015
21 18:00 西北西 3 10km以上 24 69 1015
21 17:30 西 5 10km以上 25 65 1015
21 17:00 西 5 10km以上 25 61 1015
21 16:30 西 5 10km以上 25 61 1015
21 16:00 西北西 5 10km以上 26 61 1015
21 15:30 北西 6 10km以上 25 69 1015
21 15:00 西北西 6 10km以上 25 69 1015
21 14:30 西北西 5 10km以上 26 65 1015
21 14:00 西 4 10km以上 25 69 1016
21 13:30 西北西 4 10km以上 26 61 1016
21 13:00 西北西 4 10km以上 26 54 1016
21 12:30 南西 4 10km以上 26 58 1016
21 12:00 南南西 3 10km以上 27 51 1016
21 11:30 南南西 3 10km以上 27 51 1016
21 11:00 1 10km以上 27 48 1016
21 10:30 南東 1 10km以上 26 54 1016
21 10:00 1 10km以上 25 54 1016
21 09:30 北北東 4 10km以上 23 61 1016
21 09:00 北北東 5 10km以上 22 60 1016
21 08:30 北東 6 10km以上 21 64 1016
21 08:00 北東 6 10km以上 20 64 1016
21 07:30 北東 6 10km以上 19 68 1016
21 07:00 北東 5 10km以上 18 73 1016
21 06:30 北東 4 10km以上 17 77 1016
21 06:00 北東 5 10km以上 17 83 1016
21 05:30 北東 5 10km以上 17 83 1016
21 05:00 北東 5 10km以上 17 83 1016
21 04:30 北東 4 10km以上 17 88 1016
21 04:00 北東 5 10km以上 18 77 1016
21 03:30 北東 4 10km以上 17 88 1016
21 03:00 北東 4 10km以上 18 83 1016
21 02:30 北東 4 10km以上 18 83 1016
21 02:00 北東 4 10km以上 18 88 1017
21 01:30 北東 4 10km以上 18 88 1017
21 01:00 北東 3 10km以上 18 88 1017
21 00:30 北東 4 10km以上 18 94 1017
21 00:00 北東 3 10km以上 18 94 1017
20 23:30 北東 2 10km以上 18 94 1017
20 23:00 北東 3 10km以上 19 88 1016
20 22:30 北東 3 10km以上 18 94 1016
20 22:00 北東 3 10km以上 19 88 1016
20 21:00 北東 3 10km以上 19 94 1017
20 20:30 北東 2 10km以上 19 94 1017
20 20:00 北北西 2 10km以上 21 83 1017
20 19:30 北西 2 10km以上 22 78 1016
20 19:00 北西 4 10km以上 22 78 1016
20 18:30 北西 4 10km以上 23 73 1016
20 18:00 西北西 5 10km以上 23 73 1016
20 17:30 北西 5 10km以上 24 65 1017
20 17:00 北西 5 10km以上 24 69 1017
20 16:30 西 5 10km以上 24 69 1017
URSS 221300Z 28004MPS 9999 FEW040CB 26/19 Q1015 WS ALL RWY R02/090070 R06/090070 NOSIG RMK R06/29005MPS MT OBSC QFE760
URSS 221230Z 28003MPS 240V310 9999 FEW040CB 26/17 Q1015 WS ALL RWY R02/090070 R06/090070 NOSIG RMK R06/30004MPS MT OBSC QFE760
URSS 221200Z 28003MPS 9999 FEW040CB 27/16 Q1015 WS ALL RWY R02/090070 R06/090070 NOSIG RMK R06/29004MPS MT OBSC QFE760
URSS 221130Z 25003MPS 200V290 9999 FEW040 27/15 Q1015 WS ALL RWY R02/090070 R06/090070 NOSIG RMK R06/29003G07MPS MT OBSC QFE760
URSS 221100Z 27003MPS 240V310 9999 FEW040 27/17 Q1015 WS ALL RWY R02/090070 R06/090070 NOSIG RMK R06/30003MPS MT OBSC QFE760
URSS 221030Z 26002MPS 190V310 9999 NSC 27/17 Q1015 WS ALL RWY R02/090070 R06/090070 NOSIG RMK R06/31003MPS QFE760
URSS 221000Z 27002MPS 210V320 9999 NSC 27/17 Q1016 WS ALL RWY R02/090070 R06/090070 NOSIG RMK R06/28004MPS QFE760
URSS 220930Z 28003MPS 9999 NSC 26/18 Q1016 WS ALL RWY R02/090070 R06/090070 NOSIG RMK R06/28004MPS QFE760
URSS 220900Z 28003MPS 9999 NSC 26/18 Q1016 WS ALL RWY R02/090070 R06/090070 NOSIG RMK R06/28005MPS QFE761
URSS 220830Z 26003MPS 9999 NSC 26/18 Q1016 WS ALL RWY R02/090070 R06/090070 NOSIG RMK R06/29004G07MPS QFE761
URSS 220800Z 27003MPS 9999 NSC 25/17 Q1016 WS ALL RWY R02/090070 R06/090070 NOSIG RMK R06/27004MPS QFE761
URSS 220730Z 30002MPS 250V330 9999 NSC 25/17 Q1016 WS ALL RWY R02/090070 R06/090070 NOSIG RMK R06/32002MPS QFE761
URSS 220700Z 33001MPS 9999 NSC 25/16 Q1016 WS ALL RWY R02/090070 R06/090070 NOSIG RMK R06/28003MPS QFE761
URSS 220630Z 03003MPS 9999 NSC 23/15 Q1016 WS ALL RWY R02/090070 R06/090070 NOSIG RMK R06/05001MPS QFE761
URSS 220600Z 04004MPS 9999 NSC 22/15 Q1016 WS ALL RWY R02/090070 R06/090070 NOSIG RMK R06/08003MPS QFE761
URSS 220530Z 03005MPS 9999 NSC 21/14 Q1016 WS ALL RWY R02/090070 R06/090070 NOSIG RMK R06/07004MPS QFE761
URSS 220500Z 04006MPS 9999 NSC 20/14 Q1016 WS ALL RWY R02/090070 R06/090070 NOSIG RMK R06/07003MPS QFE761
URSS 220430Z 03006MPS 9999 NSC 19/14 Q1016 WS ALL RWY R02/090070 R06/090070 NOSIG RMK R06/07003MPS QFE761
URSS 220400Z 04005MPS 9999 NSC 18/14 Q1016 WS ALL RWY R02/090070 R06/090070 NOSIG RMK R06/05002MPS QFE761
URSS 220330Z 04006MPS 9999 NSC 18/14 Q1016 WS ALL RWY R02/090070 R06/090070 NOSIG RMK R06/07004MPS QFE761
URSS 220300Z 05005MPS 9999 NSC 18/14 Q1016 WS ALL RWY R02/090070 R06/090070 NOSIG RMK R06/06002MPS QFE761
URSS 220230Z 04005MPS 9999 NSC 18/15 Q1016 WS ALL RWY R02/090070 R06/090070 NOSIG RMK R06/04002G05MPS QFE761
URSS 220200Z 04005MPS 9999 FEW033 18/15 Q1016 WS ALL RWY R02/090070 R06/090070 NOSIG RMK R06/08002MPS MT OBSC QFE761
URSS 220130Z 05005MPS 9999 FEW033 18/15 Q1016 WS ALL RWY R02/090070 R06/090070 NOSIG RMK R06/06002G05MPS MT OBSC QFE761
URSS 220100Z 05004MPS 9999 FEW033 18/15 Q1016 WS ALL RWY R02/090070 R06/090070 NOSIG RMK R06/02001MPS MT OBSC QFE761
URSS 220030Z 04005MPS 9999 FEW033 18/15 Q1016 WS ALL RWY R02/090070 R06/090070 NOSIG RMK R06/07002G05MPS MT OBSC QFE761
URSS 220000Z 05005MPS 9999 FEW033 18/16 Q1016 WS ALL RWY R02/090070 R06/090070 NOSIG RMK R06/07005MPS MT OBSC QFE761
URSS 212330Z 04005MPS 9999 BKN034 18/16 Q1016 WS ALL RWY R02/090070 R06/090070 NOSIG RMK R06/06004MPS MT OBSC QFE761
URSS 212300Z 05004MPS 9999 BKN034 18/16 Q1016 WS ALL RWY R02/090070 R06/090070 NOSIG RMK R06/07004MPS MT OBSC QFE761
URSS 212230Z 05005MPS 9999 BKN034 19/16 Q1017 WS ALL RWY R02/090070 R06/090070 NOSIG RMK R06/09001MPS MT OBSC QFE761
URSS 212200Z 05004MPS 9999 BKN033 19/16 Q1017 WS ALL RWY R02/090070 R06/090070 NOSIG RMK R06/06004MPS MT OBSC QFE761
URSS 212130Z 05004MPS 9999 SCT031 19/16 Q1017 WS ALL RWY R02/090070 R06/090070 NOSIG RMK R06/07003MPS MT OBSC QFE761
URSS 212100Z 05004MPS 9999 SCT031 19/17 Q1017 WS ALL RWY R02/090070 R06/090070 NOSIG RMK R06/08005MPS MT OBSC QFE761
URSS 212030Z 05004MPS 9999 NSC 18/17 Q1017 WS ALL RWY R02/090070 R06/090070 NOSIG RMK R06/09004MPS QFE761
URSS 212000Z 05003MPS 9999 NSC 19/17 Q1017 WS ALL RWY R02/090070 R06/090070 NOSIG RMK R06/08004MPS QFE761
URSS 211930Z 05004MPS 9999 NSC 19/17 Q1017 WS ALL RWY R02/090070 R06/090070 NOSIG RMK R06/08004MPS QFE761
URSS 211900Z 04003MPS 9999 NSC 19/17 Q1016 WS ALL RWY R02/090070 R06/090070 NOSIG RMK R06/07004MPS QFE761
URSS 211830Z 05003MPS 9999 NSC 19/17 Q1016 WS ALL RWY R02/090070 R06/090070 NOSIG RMK R06/08004MPS QFE761
URSS 211800Z 05003MPS 9999 NSC 19/17 Q1016 WS ALL RWY R02/090070 R06/090070 NOSIG RMK R06/08003MPS QFE761
URSS 211730Z 05003MPS 9999 NSC 20/17 Q1016 WS ALL RWY R02/090070 R06/090070 NOSIG RMK R06/07001MPS QFE761
URSS 211700Z 05003MPS 9999 NSC 20/18 Q1016 WS ALL RWY R02/090070 R06/090070 NOSIG RMK R06/09002MPS QFE760
URSS 211630Z 05002MPS 9999 FEW100 21/18 Q1016 WS ALL RWY R02/090070 R06/090070 NOSIG RMK R06/35001MPS QFE760
URSS 211600Z 31002MPS 9999 FEW100 23/18 Q1015 WS ALL RWY R02/090070 R06/090070 NOSIG RMK R06/30003MPS QFE760
URSS 211530Z 29003MPS 9999 FEW100 24/18 Q1015 WS ALL RWY R02/090070 R06/090070 NOSIG RMK R06/29005G09MPS QFE760
URSS 211500Z 29003MPS 9999 FEW100 24/18 Q1015 WS ALL RWY R02/090070 R06/090070 NOSIG RMK R06/29005MPS QFE760
URSS 211430Z 28005MPS 9999 FEW050 25/18 Q1015 WS ALL RWY R02/090070 R06/090070 NOSIG RMK R06/29005G09MPS QFE760
URSS 211400Z 27005MPS 9999 FEW050 25/17 Q1015 WS ALL RWY R02/090070 R06/090070 NOSIG RMK R06/29006MPS QFE760
URSS 211330Z 28005MPS 9999 FEW050 25/17 Q1015 WS ALL RWY R02/090070 R06/090070 NOSIG RMK R06/29006MPS QFE760
URSS 211300Z 30005MPS 9999 FEW050 26/18 Q1015 WS ALL RWY R02/090070 R06/090070 NOSIG RMK R06/30005MPS QFE760
URSS 211230Z 31006MPS 9999 FEW050 25/19 Q1015 WS ALL RWY R02/090070 R06/090070 NOSIG RMK R06/31005G09MPS QFE760
URSS 211200Z 29006MPS 9999 FEW050 25/19 Q1015 WS ALL RWY R02/090070 R06/090070 NOSIG RMK R06/30006G10MPS QFE760
URSS 211130Z 29005MPS 9999 FEW050 26/19 Q1015 R02/090070 R06/090070 NOSIG RMK R06/28006MPS QFE760
URSS 211100Z 27004MPS 9999 FEW050 25/19 Q1016 R02/090070 R06/090070 NOSIG RMK R06/29005MPS QFE760
URSS 211030Z 30004MPS 260V330 9999 FEW050 26/18 Q1016 R02/090070 R06/090070 NOSIG RMK R06/28004MPS QFE760
URSS 211000Z 29004MPS 9999 FEW050 26/16 Q1016 R02/090070 R06/090070 NOSIG RMK R06/29004G10MPS QFE760
URSS 210930Z 22004MPS 9999 FEW050 26/17 Q1016 R02/090070 R06/090070 NOSIG RMK R06/26004MPS QFE761
URSS 210900Z 21003MPS 9999 FEW050 27/16 Q1016 R02/090070 R06/090070 NOSIG RMK R06/25003MPS QFE761
URSS 210830Z 20003MPS 9999 NSC 27/16 Q1016 R02/090070 R06/090070 NOSIG RMK R06/26003MPS QFE761
URSS 210800Z 17001MPS 9999 NSC 27/15 Q1016 R02/090070 R06/090070 NOSIG RMK R06/29001MPS QFE761
URSS 210730Z 14001MPS 9999 NSC 26/16 Q1016 R02/090070 R06/090070 NOSIG RMK R06/00000MPS QFE761
URSS 210700Z 08001MPS 9999 NSC 25/15 Q1016 R02/090070 R06/090070 NOSIG RMK R06/26001MPS QFE761
URSS 210630Z 03004MPS 9999 NSC 23/15 Q1016 R02/090070 R06/090070 NOSIG RMK R06/09002MPS QFE761
URSS 210600Z 03005MPS 9999 NSC 22/14 Q1016 R02/090070 R06/090070 NOSIG RMK R06/00000MPS QFE761
URSS 210530Z 04006MPS 9999 NSC 21/14 Q1016 R02/090070 R06/090070 NOSIG RMK R06/05001MPS QFE761
URSS 210500Z 04006MPS 9999 NSC 20/13 Q1016 R02/090070 R06/090070 NOSIG RMK R06/07005MPS QFE761
URSS 210430Z 04006MPS 9999 NSC 19/13 Q1016 R02/090070 R06/090070 NOSIG RMK R06/05002G05MPS QFE761
URSS 210400Z 04005MPS 9999 NSC 18/13 Q1016 R02/090070 R06/090070 NOSIG RMK R06/03001G04MPS QFE761
URSS 210330Z 05004MPS 9999 NSC 17/13 Q1016 R02/090070 R06/090070 NOSIG RMK R06/00000MPS QFE761
URSS 210300Z 05005MPS 9999 NSC 17/14 Q1016 R02/090070 R06/090070 NOSIG RMK R06/07003MPS QFE761
URSS 210230Z 05005MPS 9999 NSC 17/14 Q1016 R02/090070 R06/090070 NOSIG RMK R06/03001MPS QFE761
URSS 210200Z 05005MPS 9999 NSC 17/14 Q1016 R02/090070 R06/090070 NOSIG RMK R06/07004MPS QFE761
URSS 210130Z 05004MPS 9999 NSC 17/15 Q1016 R02/090070 R06/090070 NOSIG RMK R06/07002G05MPS QFE761
URSS 210100Z 04005MPS 9999 NSC 18/14 Q1016 R02/090070 R06/090070 NOSIG RMK R06/07004MPS QFE761
URSS 210030Z 05004MPS 9999 NSC 17/15 Q1016 R02/090070 R06/090070 NOSIG RMK R06/07004MPS QFE761
URSS 210000Z 05004MPS 9999 NSC 18/15 Q1016 R02/090070 R06/090070 NOSIG RMK R06/07003MPS QFE761
URSS 202330Z 05004MPS 9999 NSC 18/15 Q1016 R02/090070 R06/090070 NOSIG RMK R06/07004MPS QFE761
URSS 202300Z 05004MPS 9999 NSC 18/16 Q1017 R02/090070 R06/090070 NOSIG RMK R06/07004MPS QFE761
URSS 202230Z 05004MPS 9999 NSC 18/16 Q1017 R02/090070 R06/090070 NOSIG RMK R06/07003MPS QFE761
URSS 202200Z 05003MPS 9999 NSC 18/16 Q1017 R02/090070 R06/090070 NOSIG RMK R06/10002MPS QFE761
URSS 202130Z 05004MPS 9999 NSC 18/17 Q1017 R02/090070 R06/090070 NOSIG RMK R06/08003MPS QFE761
URSS 202100Z 05003MPS 9999 NSC 18/17 Q1017 R02/090070 R06/090070 NOSIG RMK R06/09003MPS QFE761
URSS 202030Z 05002MPS 9999 NSC 18/17 Q1017 R02/090070 R06/090070 NOSIG RMK R06/07003MPS QFE761
URSS 202000Z 05003MPS 9999 NSC 19/17 Q1016 R02/090070 R06/090070 NOSIG RMK R06/09003MPS QFE761
URSS 201930Z 05003MPS 9999 NSC 18/17 Q1016 R02/090070 R06/090070 NOSIG RMK R06/05002MPS QFE761
URSS 201900Z 05003MPS 9999 NSC 19/17 Q1016 R02/090070 R06/090070 NOSIG RMK R06/06002MPS QFE761
URSS 201800Z 05003MPS 9999 NSC 19/18 Q1017 R02/090070 R06/090070 NOSIG RMK R06/08002MPS QFE761
URSS 201730Z 05002MPS 9999 NSC 19/18 Q1017 R02/090070 R06/090070 NOSIG RMK R06/02001G04MPS QFE761
URSS 201700Z 33002MPS 9999 NSC 21/18 Q1017 R06/090070 R02/090070 NOSIG RMK R02/04001MPS QFE761
URSS 201630Z 31002MPS 9999 NSC 22/18 Q1016 R02/090070 R06/090070 NOSIG RMK R06/33002MPS QFE761
URSS 201600Z 32004MPS 9999 NSC 22/18 Q1016 WS ALL RWY R02/090070 R06/090070 NOSIG RMK R06/33003G07MPS QFE761
URSS 201530Z 31004MPS 9999 NSC 23/18 Q1016 WS ALL RWY R02/090070 R06/090070 NOSIG RMK R06/31005G08MPS QFE761
URSS 201500Z 30005MPS 9999 NSC 23/18 Q1016 WS ALL RWY R06/090070 R02/090070 NOSIG RMK R02/29004G07MPS QFE761
URSS 201430Z 31005MPS 9999 FEW033 24/17 Q1017 WS ALL RWY R06/090070 R02/090070 NOSIG RMK R02/30005MPS MT OBSC QFE761
URSS 201400Z 31005MPS 9999 FEW033 24/18 Q1017 WS ALL RWY R06/090070 R02/090070 NOSIG RMK R02/30006MPS MT OBSC QFE761
URSS 201330Z 28005MPS 9999 FEW033 24/18 Q1017 WS ALL RWY R02/090070 R06/090070 NOSIG RMK R06/29006G09MPS MT OBSC QFE761